Time;durP1;ratioP1;P1;durP2;ratioP2;P2;SDS_P1;SDS_P2;PMS_P1;PMS_P2;Temp;Humidity;BMP_temperature;BMP_pressure;BME280_temperature;BME280_humidity;BME280_pressure;Samples;Min_cycle;Max_cycle;Signal;HPM_P1;HPM_P2
2021/07/24 00:00:57;;;;;;;12.20;10.15;;;16.00;99.90;;;;;;5055199;28;20060;-76
2021/07/24 00:03:23;;;;;;;12.13;10.57;;;16.00;99.90;;;;;;5052955;28;20036;-84
2021/07/24 00:05:49;;;;;;;14.20;11.48;;;15.90;99.90;;;;;;5054538;28;20381;-76
2021/07/24 00:08:15;;;;;;;12.05;10.60;;;15.90;99.90;;;;;;5054769;28;20017;-70
2021/07/24 00:10:40;;;;;;;11.85;10.07;;;15.90;99.90;;;;;;5053119;28;20033;-70
2021/07/24 00:13:06;;;;;;;12.93;10.38;;;15.90;99.90;;;;;;5054801;28;20025;-70
2021/07/24 00:15:31;;;;;;;12.88;11.15;;;15.90;99.90;;;;;;5054751;28;20048;-71
2021/07/24 00:17:58;;;;;;;12.80;11.02;;;15.90;99.90;;;;;;5052713;28;20053;-74
2021/07/24 00:20:24;;;;;;;11.80;10.27;;;15.90;99.90;;;;;;5054564;28;20021;-82
2021/07/24 00:22:49;;;;;;;15.02;11.57;;;15.90;99.90;;;;;;5053599;28;20032;-69
2021/07/24 00:25:15;;;;;;;13.77;11.95;;;15.90;99.90;;;;;;5053597;28;20025;-76
2021/07/24 00:27:41;;;;;;;12.93;11.20;;;15.90;99.90;;;;;;5054888;28;20087;-83
2021/07/24 00:30:07;;;;;;;13.90;10.90;;;15.90;99.90;;;;;;5055097;28;20013;-70
2021/07/24 00:32:33;;;;;;;16.13;12.55;;;15.90;99.90;;;;;;5053944;28;20033;-70
2021/07/24 00:34:59;;;;;;;14.00;11.20;;;15.90;99.90;;;;;;5053331;28;20028;-70
2021/07/24 00:37:25;;;;;;;15.43;10.45;;;15.90;99.90;;;;;;5054208;28;20035;-75
2021/07/24 00:39:51;;;;;;;13.32;10.70;;;15.90;99.90;;;;;;5052633;28;20025;-79
2021/07/24 00:42:22;;;;;;;14.60;11.88;;;15.90;99.90;;;;;;5052943;28;20381;-70
2021/07/24 00:44:52;;;;;;;12.73;11.43;;;15.90;99.90;;;;;;5054412;28;20048;-72
2021/07/24 00:47:20;;;;;;;12.77;11.27;;;15.90;99.90;;;;;;5053624;28;20052;-71
2021/07/24 00:49:47;;;;;;;12.20;10.90;;;16.00;99.90;;;;;;5054267;28;20048;-83
2021/07/24 00:52:15;;;;;;;13.05;11.75;;;15.90;99.90;;;;;;5052768;28;20033;-69
2021/07/24 00:54:42;;;;;;;13.45;11.13;;;16.00;99.90;;;;;;5053860;28;20088;-69
2021/07/24 00:57:08;;;;;;;15.63;11.50;;;15.90;99.90;;;;;;5052714;28;20388;-69
2021/07/24 00:59:37;;;;;;;13.57;11.48;;;15.90;99.90;;;;;;5053687;28;20434;-70
2021/07/24 01:02:03;;;;;;;13.20;11.02;;;15.90;99.90;;;;;;5054002;28;20020;-70
2021/07/24 01:04:29;;;;;;;14.48;12.23;;;15.90;99.90;;;;;;5053657;28;20025;-77
2021/07/24 01:06:56;;;;;;;14.75;11.35;;;15.80;99.90;;;;;;5053216;28;20031;-76
2021/07/24 01:09:24;;;;;;;13.40;11.20;;;15.80;99.90;;;;;;5053575;28;20029;-72
2021/07/24 01:11:50;;;;;;;14.15;11.77;;;15.80;99.90;;;;;;5054111;28;20393;-74
2021/07/24 01:14:15;;;;;;;14.65;11.55;;;15.80;99.90;;;;;;5051495;28;20075;-70
2021/07/24 01:16:41;;;;;;;12.30;10.88;;;15.70;99.90;;;;;;5054934;28;20043;-79
2021/07/24 01:19:06;;;;;;;13.10;11.63;;;15.60;99.90;;;;;;5073605;28;20056;-70
2021/07/24 01:21:32;;;;;;;12.98;11.57;;;15.60;99.90;;;;;;5072717;28;20095;-68
2021/07/24 01:23:58;;;;;;;13.40;11.60;;;15.60;99.90;;;;;;5055619;28;20040;-73
2021/07/24 01:26:25;;;;;;;13.52;11.32;;;15.60;99.90;;;;;;5073258;28;20416;-75
2021/07/24 01:28:51;;;;;;;14.52;11.38;;;15.50;99.90;;;;;;5054702;28;20381;-70
2021/07/24 01:31:17;;;;;;;14.75;11.48;;;15.50;99.90;;;;;;5055398;28;20023;-74
2021/07/24 01:33:42;;;;;;;13.30;11.90;;;15.50;99.90;;;;;;5055536;28;20519;-70
2021/07/24 01:36:08;;;;;;;13.15;10.77;;;15.50;99.90;;;;;;5072459;28;20498;-71
2021/07/24 01:38:37;;;;;;;14.80;10.77;;;15.50;99.90;;;;;;5073336;28;20091;-70
2021/07/24 01:41:10;;;;;;;12.35;11.05;;;15.50;99.90;;;;;;5073348;28;20021;-78
2021/07/24 01:43:36;;;;;;;15.05;11.32;;;15.40;99.90;;;;;;5072436;28;20551;-69
2021/07/24 01:46:03;;;;;;;13.07;11.20;;;15.40;99.90;;;;;;5055634;28;20025;-71
2021/07/24 01:48:35;;;;;;;13.45;10.88;;;15.40;99.90;;;;;;5072870;28;20488;-79
2021/07/24 01:53:53;;;;;;;13.70;12.18;;;15.30;99.90;;;;;;5073199;28;20114;-71
2021/07/24 01:56:21;;;;;;;16.17;12.60;;;15.30;99.90;;;;;;5072244;28;20028;-72
2021/07/24 01:58:47;;;;;;;12.50;11.20;;;15.30;99.90;;;;;;5055073;28;20036;-71
2021/07/24 02:01:13;;;;;;;13.02;11.65;;;15.30;99.90;;;;;;5072692;28;20043;-74
2021/07/24 02:03:44;;;;;;;13.57;12.07;;;15.30;99.90;;;;;;5072215;28;20086;-70
2021/07/24 02:06:16;;;;;;;12.35;10.82;;;15.20;99.90;;;;;;5072764;28;20416;-76
2021/07/24 02:08:49;;;;;;;15.27;12.40;;;15.20;99.90;;;;;;5073293;28;20422;-75
2021/07/24 02:11:16;;;;;;;15.18;12.43;;;15.20;99.90;;;;;;5054139;28;20028;-72
2021/07/24 02:13:42;;;;;;;14.27;12.10;;;15.20;99.90;;;;;;5072957;28;20376;-72
2021/07/24 02:16:08;;;;;;;16.13;12.65;;;15.20;99.90;;;;;;5072773;28;20074;-69
2021/07/24 02:18:34;;;;;;;14.85;12.50;;;15.10;99.90;;;;;;5071941;28;20566;-82
2021/07/24 02:21:01;;;;;;;13.60;12.13;;;15.10;99.90;;;;;;5072837;28;20031;-73
2021/07/24 02:23:27;;;;;;;12.23;10.55;;;15.10;99.90;;;;;;5072495;28;20105;-74
2021/07/24 02:25:52;;;;;;;14.40;11.88;;;15.00;99.90;;;;;;5072197;28;20470;-69
2021/07/24 02:28:18;;;;;;;14.10;12.13;;;15.00;99.90;;;;;;5072082;28;20020;-72
2021/07/24 02:30:44;;;;;;;15.27;11.45;;;15.00;99.90;;;;;;5072858;28;20482;-70
2021/07/24 02:33:09;;;;;;;13.77;11.32;;;15.00;99.90;;;;;;5071543;28;20102;-75
2021/07/24 02:35:35;;;;;;;15.02;11.48;;;14.90;99.90;;;;;;5072777;28;20025;-73
2021/07/24 02:38:01;;;;;;;13.70;12.18;;;14.90;99.90;;;;;;5053901;28;20039;-72
2021/07/24 02:40:26;;;;;;;16.73;12.75;;;14.90;99.90;;;;;;5054380;28;20025;-70
2021/07/24 02:42:54;;;;;;;12.65;11.35;;;14.90;99.90;;;;;;5072713;28;20039;-69
2021/07/24 02:45:20;;;;;;;17.67;12.00;;;14.90;99.90;;;;;;5071530;28;20016;-73
2021/07/24 02:47:46;;;;;;;14.25;11.73;;;14.80;99.90;;;;;;5072566;28;20035;-74
2021/07/24 02:50:11;;;;;;;12.55;11.25;;;14.80;99.90;;;;;;5072152;28;20423;-69
2021/07/24 02:52:37;;;;;;;15.93;11.95;;;14.80;99.90;;;;;;5071797;28;20031;-70
2021/07/24 02:55:02;;;;;;;14.73;12.75;;;14.80;99.90;;;;;;5072377;28;20025;-78
2021/07/24 02:57:28;;;;;;;16.08;12.38;;;14.80;99.90;;;;;;5054598;28;20063;-73
2021/07/24 02:59:53;;;;;;;15.50;12.50;;;14.80;99.90;;;;;;5071771;28;20048;-70
2021/07/24 03:02:19;;;;;;;13.80;11.65;;;14.80;99.90;;;;;;5072140;28;20518;-70
2021/07/24 03:04:45;;;;;;;15.65;11.63;;;14.70;99.90;;;;;;5072402;28;20024;-76
2021/07/24 03:07:10;;;;;;;13.43;11.35;;;14.70;99.90;;;;;;5071446;28;20056;-69
2021/07/24 03:09:36;;;;;;;14.82;11.13;;;14.70;99.90;;;;;;5072279;28;20062;-69
2021/07/24 03:12:02;;;;;;;15.60;11.93;;;14.70;99.90;;;;;;5072310;28;20032;-76
2021/07/24 03:14:28;;;;;;;15.55;12.50;;;14.70;99.90;;;;;;5071518;28;20024;-76
2021/07/24 03:16:53;;;;;;;14.07;12.10;;;14.70;99.90;;;;;;5072108;28;20064;-69
2021/07/24 03:19:19;;;;;;;15.57;11.73;;;14.70;99.90;;;;;;5072063;28;20492;-69
2021/07/24 03:21:45;;;;;;;12.95;10.93;;;14.60;99.90;;;;;;5053580;28;20020;-79
2021/07/24 03:24:10;;;;;;;13.50;12.02;;;14.60;99.90;;;;;;5053919;28;20086;-70
2021/07/24 03:26:36;;;;;;;14.60;12.45;;;14.60;99.90;;;;;;5054389;28;20487;-72
2021/07/24 03:29:02;;;;;;;15.48;11.75;;;14.60;99.90;;;;;;5071673;28;20035;-78
2021/07/24 03:31:27;;;;;;;13.10;11.55;;;14.60;99.90;;;;;;5071866;28;20103;-69
2021/07/24 03:33:53;;;;;;;12.57;11.25;;;14.60;99.90;;;;;;5072008;28;20104;-73
2021/07/24 03:36:18;;;;;;;16.30;12.35;;;14.50;99.90;;;;;;5071212;28;20024;-71
2021/07/24 03:38:44;;;;;;;16.20;12.55;;;14.60;99.90;;;;;;5054062;28;20055;-71
2021/07/24 03:41:09;;;;;;;14.88;11.65;;;14.50;99.90;;;;;;5073046;28;20073;-70
2021/07/24 03:43:35;;;;;;;14.68;11.88;;;14.50;99.90;;;;;;5075511;28;20134;-70
2021/07/24 03:46:01;;;;;;;16.13;12.27;;;14.50;99.90;;;;;;5075690;28;20013;-81
2021/07/24 03:48:26;;;;;;;14.68;12.13;;;14.50;99.90;;;;;;5074422;28;20032;-72
2021/07/24 03:50:52;;;;;;;16.17;13.00;;;14.50;99.90;;;;;;5075422;28;20028;-70
2021/07/24 03:53:18;;;;;;;12.38;11.07;;;14.50;99.90;;;;;;5075084;28;20407;-71
2021/07/24 03:55:44;;;;;;;16.80;13.68;;;14.50;99.90;;;;;;5054973;28;20035;-72
2021/07/24 03:58:10;;;;;;;14.38;11.90;;;14.50;99.90;;;;;;5068062;28;20033;-71
2021/07/24 04:00:45;;;;;;;14.90;12.60;;;14.60;99.90;;;;;;5061331;28;20437;-70
2021/07/24 04:03:11;;;;;;;14.68;11.80;;;14.60;99.90;;;;;;5067836;28;20028;-69
2021/07/24 04:05:42;;;;;;;14.60;11.48;;;14.60;99.90;;;;;;5074851;28;20021;-77
2021/07/24 04:08:08;;;;;;;14.52;11.18;;;14.60;99.90;;;;;;5037019;28;20107;-69
2021/07/24 04:10:35;;;;;;;12.50;10.93;;;14.60;99.90;;;;;;5056536;28;20543;-70
2021/07/24 04:13:02;;;;;;;13.35;11.55;;;14.70;99.90;;;;;;5065540;28;20104;-70
2021/07/24 04:15:28;;;;;;;15.75;12.10;;;14.70;99.90;;;;;;5044405;28;20032;-69
2021/07/24 04:17:53;;;;;;;14.50;11.35;;;14.70;99.90;;;;;;5063218;28;20040;-78
2021/07/24 04:20:21;;;;;;;14.73;11.63;;;14.80;99.90;;;;;;5062111;28;20579;-77
2021/07/24 04:22:48;;;;;;;15.88;12.13;;;14.90;99.90;;;;;;5045869;28;20036;-77
2021/07/24 04:25:13;;;;;;;12.73;10.77;;;14.90;99.90;;;;;;5061024;28;20477;-71
2021/07/24 04:27:42;;;;;;;13.10;10.88;;;15.00;99.90;;;;;;5063174;28;20151;-69
2021/07/24 04:30:08;;;;;;;14.00;11.05;;;15.10;99.90;;;;;;5062289;28;20025;-69
2021/07/24 04:32:33;;;;;;;15.15;11.50;;;15.20;99.90;;;;;;5046469;28;20031;-69
2021/07/24 04:34:59;;;;;;;12.73;10.90;;;15.30;99.90;;;;;;5063997;28;20012;-72
2021/07/24 04:37:25;;;;;;;12.57;10.95;;;15.40;99.90;;;;;;5046472;28;20029;-76
2021/07/24 04:39:50;;;;;;;12.98;10.95;;;15.50;99.90;;;;;;5064122;28;20095;-69
2021/07/24 04:42:16;;;;;;;11.85;10.52;;;15.60;99.90;;;;;;5061794;28;20033;-71
2021/07/24 04:44:42;;;;;;;11.00;9.80;;;15.60;99.90;;;;;;5061289;28;20071;-70
2021/07/24 04:47:07;;;;;;;13.00;9.95;;;15.70;99.90;;;;;;5064436;28;20035;-70
2021/07/24 04:49:33;;;;;;;10.82;9.65;;;15.80;99.90;;;;;;5059188;28;20477;-69
2021/07/24 04:52:00;;;;;;;13.50;10.63;;;15.80;99.90;;;;;;5064192;28;20024;-73
2021/07/24 04:54:27;;;;;;;13.48;10.63;;;15.80;99.90;;;;;;5062935;28;20553;-73
2021/07/24 04:56:53;;;;;;;12.20;10.65;;;15.90;99.90;;;;;;5063214;28;20023;-85
2021/07/24 04:59:19;;;;;;;11.45;10.07;;;15.90;99.90;;;;;;5045841;28;20020;-70
2021/07/24 05:01:44;;;;;;;11.88;9.77;;;16.00;99.90;;;;;;5061929;28;20016;-80
2021/07/24 05:04:11;;;;;;;11.65;9.48;;;16.00;99.90;;;;;;5044201;28;20473;-70
2021/07/24 05:06:36;;;;;;;11.95;10.23;;;16.10;99.90;;;;;;5062703;28;20032;-80
2021/07/24 05:09:06;;;;;;;11.43;10.30;;;16.20;99.90;;;;;;5064364;28;20013;-80
2021/07/24 05:11:33;;;;;;;12.50;10.82;;;16.30;99.90;;;;;;5045098;28;20116;-77
2021/07/24 05:13:59;;;;;;;12.93;10.32;;;16.30;99.90;;;;;;5043523;28;20017;-75
2021/07/24 05:16:25;;;;;;;11.80;10.05;;;16.40;99.90;;;;;;5060229;28;20473;-73
2021/07/24 05:18:50;;;;;;;12.07;9.98;;;16.40;99.90;;;;;;5063848;28;20040;-70
2021/07/24 05:21:19;;;;;;;11.88;9.65;;;16.50;99.90;;;;;;5058593;28;20076;-73
2021/07/24 05:23:45;;;;;;;10.85;9.57;;;16.60;99.90;;;;;;5053601;28;20047;-73
2021/07/24 05:26:14;;;;;;;11.35;9.10;;;16.60;99.90;;;;;;5053265;28;20510;-73
2021/07/24 05:28:41;;;;;;;11.60;9.88;;;16.70;99.90;;;;;;5052846;28;20028;-73
2021/07/24 05:31:17;;;;;;;11.40;10.00;;;16.80;99.90;;;;;;5065018;28;20033;-68
2021/07/24 05:33:43;;;;;;;10.10;9.05;;;16.90;99.90;;;;;;5055061;28;20596;-75
2021/07/24 05:36:09;;;;;;;11.38;9.80;;;17.00;99.90;;;;;;5072916;28;20115;-69
2021/07/24 05:38:34;;;;;;;11.27;9.45;;;17.10;99.90;;;;;;5053407;28;20037;-70
2021/07/24 05:41:00;;;;;;;12.57;9.85;;;17.10;99.90;;;;;;5072649;28;20028;-81
2021/07/24 05:43:26;;;;;;;10.82;9.50;;;17.20;99.90;;;;;;5072821;28;20025;-75
2021/07/24 05:45:52;;;;;;;11.05;9.43;;;17.20;99.90;;;;;;5044096;28;20021;-71
2021/07/24 05:48:17;;;;;;;11.95;8.85;;;17.30;99.90;;;;;;5052538;28;20393;-74
2021/07/24 05:50:43;;;;;;;12.18;9.68;;;17.40;99.90;;;;;;5053037;28;20059;-72
2021/07/24 05:53:08;;;;;;;10.80;9.68;;;17.50;99.90;;;;;;5052721;28;20539;-72
2021/07/24 05:55:34;;;;;;;13.27;10.00;;;17.50;99.90;;;;;;5034898;28;20029;-70
2021/07/24 05:57:59;;;;;;;11.43;9.82;;;17.60;99.90;;;;;;5035148;28;20029;-72
2021/07/24 06:00:25;;;;;;;11.05;9.93;;;17.60;99.90;;;;;;5055927;28;20020;-73
2021/07/24 06:02:51;;;;;;;10.02;9.02;;;17.70;99.90;;;;;;5051580;28;20487;-75
2021/07/24 06:05:16;;;;;;;11.57;10.38;;;17.70;99.90;;;;;;5072458;28;20048;-68
2021/07/24 06:07:42;;;;;;;12.23;9.50;;;17.80;99.90;;;;;;5061292;28;20067;-73
2021/07/24 06:10:08;;;;;;;10.57;9.43;;;17.90;99.90;;;;;;5055584;28;20029;-70
2021/07/24 06:12:33;;;;;;;11.25;9.88;;;17.90;99.90;;;;;;5063033;28;20369;-81
2021/07/24 06:15:00;;;;;;;11.55;9.63;;;18.00;99.90;;;;;;5054994;28;20031;-70
2021/07/24 06:17:25;;;;;;;12.52;10.35;;;18.00;99.90;;;;;;5071636;28;20048;-69
2021/07/24 06:19:51;;;;;;;11.00;9.70;;;18.10;99.90;;;;;;5067862;28;20025;-72
2021/07/24 06:22:16;;;;;;;11.30;10.07;;;18.20;99.90;;;;;;5064003;28;20112;-73
2021/07/24 06:24:42;;;;;;;11.18;9.73;;;18.20;99.90;;;;;;5072047;28;20338;-69
2021/07/24 06:27:07;;;;;;;11.68;9.70;;;18.30;99.90;;;;;;5052211;28;20082;-70
2021/07/24 06:29:33;;;;;;;9.95;8.77;;;18.40;99.90;;;;;;5058638;28;20028;-70
2021/07/24 06:31:59;;;;;;;12.43;9.07;;;18.50;99.90;;;;;;5062366;28;20460;-82
2021/07/24 06:34:24;;;;;;;9.90;8.90;;;18.50;99.90;;;;;;5061467;28;20052;-69
2021/07/24 06:36:50;;;;;;;12.23;9.80;;;18.60;99.90;;;;;;5063366;28;20021;-69
2021/07/24 06:39:15;;;;;;;12.05;8.68;;;18.70;99.90;;;;;;5059979;28;20051;-70
2021/07/24 06:41:44;;;;;;;10.77;9.18;;;18.70;99.90;;;;;;5061487;28;20022;-72
2021/07/24 06:44:09;;;;;;;10.13;9.02;;;18.80;99.90;;;;;;5060934;28;20539;-71
2021/07/24 06:46:35;;;;;;;9.52;8.60;;;18.80;99.90;;;;;;5063178;28;20021;-70
2021/07/24 06:49:00;;;;;;;10.95;9.65;;;18.90;99.90;;;;;;5061970;28;20023;-73
2021/07/24 06:51:26;;;;;;;11.57;10.38;;;18.90;99.90;;;;;;5056668;28;20134;-74
2021/07/24 06:53:52;;;;;;;12.25;10.82;;;18.80;99.90;;;;;;5039139;28;20107;-68
2021/07/24 06:56:17;;;;;;;10.43;9.30;;;18.80;99.90;;;;;;5041136;28;20044;-68
2021/07/24 06:58:43;;;;;;;12.55;10.43;;;18.80;99.90;;;;;;5060962;28;20029;-70
2021/07/24 07:01:08;;;;;;;11.15;9.95;;;18.90;99.90;;;;;;5060212;28;20477;-71
2021/07/24 07:03:35;;;;;;;11.68;9.93;;;18.80;99.90;;;;;;5047389;28;20120;-72
2021/07/24 07:06:03;;;;;;;10.25;9.18;;;18.90;99.90;;;;;;5062757;28;20020;-69
2021/07/24 07:08:28;;;;;;;11.32;9.77;;;18.90;99.90;;;;;;5058592;28;20044;-69
2021/07/24 07:10:59;;;;;;;10.98;9.52;;;19.00;99.90;;;;;;5061509;28;20021;-69
2021/07/24 07:13:25;;;;;;;10.57;9.48;;;19.20;99.90;;;;;;5059382;28;20056;-72
2021/07/24 07:15:51;;;;;;;11.32;8.88;;;19.20;99.90;;;;;;5062837;28;20052;-68
2021/07/24 07:18:16;;;;;;;11.23;9.57;;;19.30;99.90;;;;;;5065060;28;20539;-81
2021/07/24 07:20:42;;;;;;;10.68;9.60;;;19.40;99.90;;;;;;5043391;28;20071;-71
2021/07/24 07:23:08;;;;;;;13.38;9.63;;;19.50;99.90;;;;;;5054110;28;20033;-69
2021/07/24 07:25:33;;;;;;;9.38;8.30;;;19.60;99.90;;;;;;5052185;28;20025;-77
2021/07/24 07:27:59;;;;;;;14.50;10.15;;;19.70;99.90;;;;;;5033775;28;20548;-77
2021/07/24 07:30:24;;;;;;;10.18;9.00;;;19.80;99.90;;;;;;5034405;28;20021;-82
2021/07/24 07:32:50;;;;;;;10.63;8.93;;;19.90;99.90;;;;;;5054438;28;20512;-77
2021/07/24 07:35:15;;;;;;;9.15;8.27;;;20.00;99.90;;;;;;5070010;28;20702;-80
2021/07/24 07:37:51;;;;;;;9.77;8.77;;;20.20;99.90;;;;;;5051142;28;20119;-75
2021/07/24 07:40:18;;;;;;;11.55;9.02;;;20.40;99.90;;;;;;5035898;28;20135;-77
2021/07/24 07:42:45;;;;;;;10.20;9.10;;;20.40;99.90;;;;;;5054115;28;20469;-75
2021/07/24 07:45:11;;;;;;;10.70;9.50;;;20.50;99.90;;;;;;5052920;28;20021;-74
2021/07/24 07:47:37;;;;;;;9.68;8.68;;;20.60;99.90;;;;;;5060386;28;20037;-74
2021/07/24 07:50:04;;;;;;;9.70;8.70;;;20.70;99.90;;;;;;5054339;28;20393;-73
2021/07/24 07:52:29;;;;;;;11.25;8.05;;;20.80;99.90;;;;;;5057187;28;20055;-77
2021/07/24 07:54:55;;;;;;;10.77;8.52;;;20.90;99.90;;;;;;5061236;28;20067;-74
2021/07/24 07:57:20;;;;;;;9.10;8.18;;;21.10;99.90;;;;;;5051342;28;20062;-73
2021/07/24 07:59:46;;;;;;;9.32;8.32;;;21.30;99.90;;;;;;5051119;28;20067;-70
2021/07/24 08:02:11;;;;;;;12.30;9.07;;;21.30;99.90;;;;;;5054196;28;20464;-75
2021/07/24 08:04:37;;;;;;;9.50;8.60;;;21.40;99.90;;;;;;5051646;28;20146;-72
2021/07/24 08:07:03;;;;;;;9.65;7.53;;;21.40;99.90;;;;;;5070607;28;20028;-74
2021/07/24 08:09:28;;;;;;;8.43;7.50;;;21.50;99.90;;;;;;5071319;28;20063;-79
2021/07/24 08:11:55;;;;;;;8.57;7.68;;;21.60;99.90;;;;;;5057363;28;20028;-73
2021/07/24 08:14:21;;;;;;;10.00;8.18;;;21.70;99.90;;;;;;5053111;28;20024;-80
2021/07/24 08:16:46;;;;;;;10.32;8.35;;;21.80;99.90;;;;;;5049492;28;20052;-76
2021/07/24 08:19:12;;;;;;;8.27;7.45;;;21.90;99.90;;;;;;5051013;28;20037;-78
2021/07/24 08:21:37;;;;;;;10.57;8.20;;;21.90;99.90;;;;;;5050856;28;20070;-78
2021/07/24 08:24:03;;;;;;;9.10;8.15;;;22.00;99.90;;;;;;5049722;28;20032;-73
2021/07/24 08:26:28;;;;;;;8.50;7.60;;;22.10;99.90;;;;;;5039642;28;20033;-83
2021/07/24 08:28:54;;;;;;;8.02;7.22;;;22.10;99.90;;;;;;5030417;28;20017;-74
2021/07/24 08:31:19;;;;;;;7.78;6.95;;;22.10;99.90;;;;;;5033328;28;20482;-71
2021/07/24 08:33:45;;;;;;;9.52;7.75;;;22.10;99.90;;;;;;5035323;28;20021;-75
2021/07/24 08:36:11;;;;;;;13.20;8.63;;;22.20;99.90;;;;;;5028828;28;20025;-70
2021/07/24 08:38:37;;;;;;;11.82;8.63;;;22.10;99.90;;;;;;5030441;28;20043;-73
2021/07/24 08:41:03;;;;;;;8.55;7.68;;;22.10;99.90;;;;;;5032740;28;20017;-71
2021/07/24 08:43:28;;;;;;;8.77;7.10;;;22.20;99.90;;;;;;5046523;28;20064;-78
2021/07/24 08:45:56;;;;;;;14.15;8.05;;;22.40;99.90;;;;;;5048804;28;20488;-81
2021/07/24 08:48:21;;;;;;;9.05;8.13;;;22.60;99.90;;;;;;5039597;28;20021;-82
2021/07/24 08:50:49;;;;;;;9.57;7.82;;;22.80;99.90;;;;;;5037874;28;20462;-75
2021/07/24 08:53:19;;;;;;;12.20;8.27;;;23.00;99.90;;;;;;5034246;28;20025;-73
2021/07/24 08:55:45;;;;;;;9.43;7.85;;;23.20;99.90;;;;;;5052601;28;20017;-73
2021/07/24 08:58:13;;;;;;;7.45;6.63;;;23.10;99.90;;;;;;5053242;28;20523;-84
2021/07/24 09:00:44;;;;;;;8.15;7.38;;;23.20;99.90;;;;;;5051494;28;20053;-73
2021/07/24 09:03:17;;;;;;;9.30;7.90;;;23.20;99.90;;;;;;5051306;28;20074;-73
2021/07/24 09:05:48;;;;;;;9.55;6.85;;;23.30;99.90;;;;;;5054190;28;20036;-75
2021/07/24 09:08:13;;;;;;;7.40;6.70;;;23.50;99.90;;;;;;5053909;28;20370;-81
2021/07/24 09:10:40;;;;;;;8.55;7.50;;;23.70;99.90;;;;;;5053159;28;20014;-70
2021/07/24 09:13:06;;;;;;;8.00;7.20;;;23.80;99.90;;;;;;5052543;28;20036;-82
2021/07/24 09:15:32;;;;;;;10.00;7.40;;;23.90;99.90;;;;;;5053783;28;20021;-73
2021/07/24 09:17:57;;;;;;;10.95;7.97;;;24.00;99.90;;;;;;5066242;28;20562;-76
2021/07/24 09:20:26;;;;;;;8.38;7.05;;;24.20;99.80;;;;;;5073607;28;20031;-79
2021/07/24 09:22:53;;;;;;;8.75;7.13;;;24.40;99.60;;;;;;5073718;28;20107;-71
2021/07/24 09:25:22;;;;;;;7.80;7.10;;;24.70;99.30;;;;;;5054621;28;20443;-82
2021/07/24 09:27:50;;;;;;;10.35;7.20;;;24.90;98.90;;;;;;5073723;28;20429;-76
2021/07/24 09:30:24;;;;;;;9.68;7.43;;;25.10;98.50;;;;;;5073403;28;20021;-74
2021/07/24 09:33:10;;;;;;;8.43;7.40;;;25.10;97.80;;;;;;5072934;28;20059;-79
2021/07/24 09:35:44;;;;;;;9.75;7.80;;;25.10;97.70;;;;;;5073647;28;20090;-76
2021/07/24 09:38:12;;;;;;;7.65;6.75;;;24.90;97.90;;;;;;5071631;28;20033;-70
2021/07/24 09:40:44;;;;;;;9.32;7.15;;;24.80;98.20;;;;;;5073322;28;20031;-70
2021/07/24 09:43:30;;;;;;;8.18;6.57;;;24.80;98.40;;;;;;5073050;28;20500;-86
2021/07/24 09:46:21;;;;;;;7.55;6.80;;;24.90;98.60;;;;;;5072674;28;20032;-80
2021/07/24 09:48:51;;;;;;;9.80;7.38;;;25.00;98.60;;;;;;5073708;28;20377;-73
2021/07/24 09:51:34;;;;;;;9.73;7.43;;;25.10;99.00;;;;;;5072847;28;20028;-83
2021/07/24 09:54:00;;;;;;;7.65;6.93;;;25.30;98.60;;;;;;5072525;28;20020;-83
2021/07/24 09:56:43;;;;;;;13.68;8.02;;;25.30;98.10;;;;;;5055008;28;20036;-87
2021/07/24 09:59:19;;;;;;;9.82;8.18;;;25.30;97.80;;;;;;5072197;28;20533;-68
2021/07/24 10:01:52;;;;;;;7.30;6.60;;;25.20;97.70;;;;;;5073169;28;20021;-83
2021/07/24 10:04:52;;;;;;;7.43;6.72;;;25.20;98.00;;;;;;5072865;28;20024;-71
2021/07/24 10:07:21;;;;;;;10.15;7.40;;;25.30;98.20;;;;;;5071982;28;20108;-83
2021/07/24 10:09:47;;;;;;;9.93;7.40;;;25.30;97.90;;;;;;5072863;28;20043;-70
2021/07/24 10:12:16;;;;;;;8.43;7.65;;;25.30;98.00;;;;;;5072687;28;20468;-73
2021/07/24 10:14:42;;;;;;;8.45;7.57;;;25.40;97.80;;;;;;5054256;28;20026;-78
2021/07/24 10:17:08;;;;;;;8.70;7.85;;;25.40;98.10;;;;;;5072575;28;20481;-71
2021/07/24 10:19:34;;;;;;;10.98;7.30;;;25.50;98.40;;;;;;5072976;28;20024;-74
2021/07/24 10:22:00;;;;;;;8.98;8.07;;;25.50;98.90;;;;;;5072176;28;20114;-76
2021/07/24 10:24:27;;;;;;;8.70;7.78;;;25.50;99.10;;;;;;5054615;28;20346;-81
2021/07/24 10:26:55;;;;;;;8.38;7.53;;;25.60;99.40;;;;;;5072567;28;20017;-75
2021/07/24 10:29:33;;;;;;;8.13;7.38;;;25.70;99.90;;;;;;5071863;28;20027;-77
2021/07/24 10:32:07;;;;;;;9.43;8.20;;;25.70;99.80;;;;;;5072801;28;20524;-76
2021/07/24 10:34:36;;;;;;;9.27;8.20;;;25.70;99.90;;;;;;5071914;28;20521;-78
2021/07/24 10:37:21;;;;;;;8.45;7.65;;;25.70;99.90;;;;;;5073056;28;20055;-70
2021/07/24 10:39:47;;;;;;;10.40;7.63;;;25.70;99.90;;;;;;5072593;28;20040;-81
2021/07/24 10:42:14;;;;;;;9.30;8.38;;;25.80;99.90;;;;;;5071580;28;20070;-72
2021/07/24 10:44:41;;;;;;;9.10;8.15;;;25.90;99.40;;;;;;5054326;28;20423;-72
2021/07/24 10:47:16;;;;;;;9.77;8.82;;;25.90;99.80;;;;;;5072539;28;20049;-84
2021/07/24 10:49:44;;;;;;;14.98;8.55;;;26.00;99.80;;;;;;5072852;28;20047;-74
2021/07/24 10:52:11;;;;;;;10.75;8.68;;;26.00;99.90;;;;;;5076356;28;20025;-71
2021/07/24 10:54:51;;;;;;;10.38;9.40;;;26.00;99.90;;;;;;5076401;28;20358;-71
2021/07/24 10:57:45;;;;;;;11.52;10.40;;;26.00;99.90;;;;;;5075614;28;20040;-70
2021/07/24 11:00:17;;;;;;;10.60;9.50;;;25.90;99.70;;;;;;5076536;28;20021;-77
2021/07/24 11:02:46;;;;;;;11.88;9.60;;;25.90;99.80;;;;;;5075659;28;20029;-70
2021/07/24 11:05:25;;;;;;;15.18;11.05;;;25.80;99.80;;;;;;5076058;28;20021;-72
2021/07/24 11:07:51;;;;;;;10.90;9.90;;;25.80;98.50;;;;;;5058327;28;20028;-84
2021/07/24 11:10:17;;;;;;;12.35;9.95;;;25.70;98.60;;;;;;5075441;28;20025;-70
2021/07/24 11:12:43;;;;;;;10.57;9.63;;;25.60;98.60;;;;;;5076168;28;20024;-71
2021/07/24 11:15:17;;;;;;;11.18;10.00;;;25.50;98.70;;;;;;5075913;28;20100;-71
2021/07/24 11:17:43;;;;;;;14.52;11.25;;;25.30;99.20;;;;;;5075305;28;20044;-72
2021/07/24 11:20:09;;;;;;;12.20;10.75;;;25.20;99.20;;;;;;5057936;28;20027;-70
2021/07/24 11:23:03;;;;;;;11.10;10.00;;;25.10;99.00;;;;;;5043992;28;20049;-83
2021/07/24 11:25:33;;;;;;;11.80;10.10;;;25.10;99.70;;;;;;5025788;28;20091;-72
2021/07/24 11:28:00;;;;;;;13.25;10.65;;;25.10;99.40;;;;;;5040610;28;20025;-82
2021/07/24 11:30:26;;;;;;;11.75;10.43;;;25.00;99.10;;;;;;5038005;28;20025;-75
2021/07/24 11:32:56;;;;;;;11.57;10.38;;;24.80;98.70;;;;;;5054582;28;20033;-70
2021/07/24 11:35:30;;;;;;;11.02;9.93;;;24.80;99.20;;;;;;5048427;28;20521;-72
2021/07/24 11:37:57;;;;;;;13.23;10.63;;;24.80;99.50;;;;;;5074630;28;20892;-74
2021/07/24 11:40:28;;;;;;;12.55;9.88;;;24.80;99.20;;;;;;5064093;28;20032;-82
2021/07/24 11:42:58;;;;;;;;;;;24.80;99.20;;;;;;5037344;28;20029;-76
2021/07/24 11:45:24;;;;;;;11.32;10.20;;;24.90;99.20;;;;;;5065129;28;19947;-74
2021/07/24 11:48:06;;;;;;;10.82;8.30;;;24.90;99.50;;;;;;5074281;28;20515;-75
2021/07/24 11:50:31;;;;;;;11.00;9.93;;;25.10;99.90;;;;;;5072520;28;20027;-77
2021/07/24 11:52:57;;;;;;;12.25;10.48;;;25.10;99.90;;;;;;5060097;28;20100;-73
2021/07/24 11:55:32;;;;;;;11.05;9.65;;;25.20;99.90;;;;;;5036542;28;20043;-78
2021/07/24 11:58:05;;;;;;;10.55;9.48;;;25.20;99.90;;;;;;5036806;28;20083;-74
2021/07/24 12:00:38;;;;;;;12.00;10.80;;;25.20;99.90;;;;;;5036795;28;20043;-87
2021/07/24 12:03:23;;;;;;;11.75;10.63;;;25.10;99.90;;;;;;5058567;28;20076;-71
2021/07/24 12:05:55;;;;;;;13.50;9.75;;;25.10;99.90;;;;;;5072895;28;20111;-84
2021/07/24 12:08:24;;;;;;;9.93;8.93;;;25.10;99.90;;;;;;5057213;28;20024;-74
2021/07/24 12:10:51;;;;;;;11.23;9.48;;;24.90;99.90;;;;;;5066677;28;20022;-76
2021/07/24 12:13:25;;;;;;;11.15;9.50;;;24.90;99.90;;;;;;5049261;28;20373;-72
2021/07/24 12:16:03;;;;;;;11.52;10.40;;;24.80;99.90;;;;;;5074385;28;20044;-78
2021/07/24 12:18:34;;;;;;;13.23;11.20;;;24.70;99.90;;;;;;5073929;28;20079;-78
2021/07/24 12:21:07;;;;;;;12.63;10.25;;;24.60;99.90;;;;;;5074260;28;20461;-81
2021/07/24 12:23:33;;;;;;;11.85;10.65;;;24.60;99.90;;;;;;5075021;28;20020;-74
2021/07/24 12:26:09;;;;;;;12.38;10.75;;;24.50;99.90;;;;;;5074795;28;20356;-76
2021/07/24 12:28:36;;;;;;;12.27;10.75;;;24.40;99.90;;;;;;5073858;28;20531;-73
2021/07/24 12:31:18;;;;;;;10.95;9.88;;;24.40;99.90;;;;;;5068386;28;20048;-76
2021/07/24 12:33:51;;;;;;;15.55;11.05;;;24.40;99.90;;;;;;5067520;28;20043;-76
2021/07/24 12:36:19;;;;;;;11.73;10.63;;;24.30;99.90;;;;;;5040328;28;20116;-73
2021/07/24 12:38:45;;;;;;;11.85;10.65;;;24.40;99.90;;;;;;5045037;28;20120;-75